Time;durP1;ratioP1;P1;durP2;ratioP2;P2;SDS_P1;SDS_P2;PMS_P1;PMS_P2;Temp;Humidity;BMP_temperature;BMP_pressure;BME280_temperature;BME280_humidity;BME280_pressure;Samples;Min_cycle;Max_cycle;Signal;HPM_P1;HPM_P2
2022/11/04 00:01:17;;;;;;;14.07;9.98;;;;;;;;;;5029138;28;20029;-74
2022/11/04 00:03:43;;;;;;;18.50;11.18;;;;;;;;;;5030049;28;20395;-73
2022/11/04 00:06:09;;;;;;;15.45;10.30;;;;;;;;;;5029238;28;20018;-74
2022/11/04 00:08:35;;;;;;;16.77;10.95;;;;;;;;;;5028664;28;20369;-74
2022/11/04 00:13:46;;;;;;;20.13;10.32;;;;;;;;;;5028140;28;20044;-74
2022/11/04 00:18:58;;;;;;;18.30;11.15;;;;;;;;;;5027944;28;20474;-74
2022/11/04 00:29:39;;;;;;;17.60;11.45;;;;;;;;;;5030336;28;20091;-75
2022/11/04 00:34:50;;;;;;;21.05;12.32;;;;;;;;;;5030425;28;20371;-74
2022/11/04 00:37:16;;;;;;;18.38;11.63;;;;;;;;;;5029524;28;20017;-73
2022/11/04 00:39:42;;;;;;;20.85;12.52;;;;;;;;;;5028540;28;20131;-74
2022/11/04 00:42:08;;;;;;;23.98;12.98;;;;;;;;;;5030372;28;20030;-75
2022/11/04 00:44:34;;;;;;;20.98;13.63;;;;;;;;;;5029938;28;20030;-75
2022/11/04 00:47:00;;;;;;;21.73;12.88;;;;;;;;;;5033003;28;20115;-74
2022/11/04 00:49:26;;;;;;;21.20;12.98;;;;;;;;;;5033049;28;20025;-74
2022/11/04 00:51:52;;;;;;;24.65;15.57;;;;;;;;;;5033564;28;20030;-74
2022/11/04 00:54:18;;;;;;;25.98;13.95;;;;;;;;;;5032093;28;20120;-74
2022/11/04 00:56:44;;;;;;;21.63;14.05;;;;;;;;;;5032183;28;20116;-74
2022/11/04 00:59:10;;;;;;;19.88;14.80;;;;;;;;;;5031514;28;20025;-74
2022/11/04 01:01:36;;;;;;;22.10;14.63;;;;;;;;;;5033409;28;20029;-75
2022/11/04 01:04:02;;;;;;;22.10;15.38;;;;;;;;;;5033128;28;20029;-73
2022/11/04 01:06:28;;;;;;;25.48;15.98;;;;;;;;;;5033633;28;20383;-74
2022/11/04 01:08:59;;;;;;;27.08;15.50;;;;;;;;;;5030692;28;20071;-74
2022/11/04 01:11:27;;;;;;;20.93;15.70;;;;;;;;;;5031651;28;20427;-76
2022/11/04 01:13:53;;;;;;;26.05;16.50;;;;;;;;;;5031872;28;20280;-75
2022/11/04 01:16:19;;;;;;;22.08;16.75;;;;;;;;;;5033322;28;20084;-76
2022/11/04 01:18:45;;;;;;;24.95;16.95;;;;;;;;;;5031280;28;20457;-75
2022/11/04 01:21:12;;;;;;;24.13;16.52;;;;;;;;;;5033645;28;20548;-75
2022/11/04 01:23:39;;;;;;;24.50;16.60;;;;;;;;;;5033444;28;20049;-76
2022/11/04 01:26:09;;;;;;;24.80;16.80;;;;;;;;;;5033362;28;20080;-76
2022/11/04 01:28:35;;;;;;;27.73;18.50;;;;;;;;;;5032503;28;20081;-76
2022/11/04 01:31:08;;;;;;;24.77;17.77;;;;;;;;;;5033004;28;20101;-75
2022/11/04 01:33:34;;;;;;;28.25;18.65;;;;;;;;;;5031691;28;20021;-75
2022/11/04 01:36:00;;;;;;;25.95;17.17;;;;;;;;;;5032993;28;20044;-75
2022/11/04 01:38:26;;;;;;;25.90;18.23;;;;;;;;;;5032244;28;20030;-75
2022/11/04 01:40:52;;;;;;;27.13;18.40;;;;;;;;;;5032841;28;20033;-75
2022/11/04 01:43:19;;;;;;;27.75;18.80;;;;;;;;;;5033043;28;20475;-74
2022/11/04 01:45:54;;;;;;;30.38;18.73;;;;;;;;;;5032383;28;20032;-74
2022/11/04 01:48:21;;;;;;;33.05;21.05;;;;;;;;;;5032095;28;20030;-74
2022/11/04 01:50:48;;;;;;;29.77;20.50;;;;;;;;;;5032639;28;20028;-74
2022/11/04 01:53:25;;;;;;;30.58;20.38;;;;;;;;;;5031405;28;20021;-74
2022/11/04 01:55:55;;;;;;;31.42;20.23;;;;;;;;;;5031053;28;20052;-74
2022/11/04 01:58:22;;;;;;;30.75;21.00;;;;;;;;;;5031390;28;20021;-74
2022/11/04 02:00:49;;;;;;;34.13;21.63;;;;;;;;;;5032360;28;20495;-74
2022/11/04 02:03:17;;;;;;;27.63;20.60;;;;;;;;;;5032373;28;20425;-75
2022/11/04 02:05:43;;;;;;;28.58;20.63;;;;;;;;;;5032021;28;20344;-75
2022/11/04 02:08:10;;;;;;;35.95;22.20;;;;;;;;;;5031619;28;20381;-74
2022/11/04 02:10:36;;;;;;;32.97;22.45;;;;;;;;;;5054875;22;20073;-77
2022/11/04 02:13:03;;;;;;;28.95;21.55;;;;;;;;;;5032495;28;20052;-75
2022/11/04 02:15:32;;;;;;;29.83;20.92;;;;;;;;;;5030847;28;20422;-75
2022/11/04 02:18:04;;;;;;;31.67;22.23;;;;;;;;;;5031323;28;20087;-75
2022/11/04 02:20:37;;;;;;;35.08;23.80;;;;;;;;;;5030505;28;20436;-75
2022/11/04 02:23:18;;;;;;;30.90;22.50;;;;;;;;;;5032305;28;20068;-75
2022/11/04 02:25:47;;;;;;;35.78;23.77;;;;;;;;;;5030778;28;20037;-74
2022/11/04 02:28:33;;;;;;;30.40;23.35;;;;;;;;;;5031666;28;20025;-74
2022/11/04 02:31:19;;;;;;;34.50;23.42;;;;;;;;;;5032040;28;20345;-75
2022/11/04 02:33:48;;;;;;;30.27;22.75;;;;;;;;;;5032039;28;20025;-76
2022/11/04 02:36:20;;;;;;;32.70;24.10;;;;;;;;;;5032565;28;20024;-76
2022/11/04 02:39:05;;;;;;;32.92;22.95;;;;;;;;;;5032049;28;20104;-76
2022/11/04 02:41:39;;;;;;;35.58;25.25;;;;;;;;;;5032313;28;20090;-76
2022/11/04 02:44:25;;;;;;;32.70;25.10;;;;;;;;;;5032051;28;20025;-76
2022/11/04 02:46:56;;;;;;;39.10;26.05;;;;;;;;;;5017135;28;20033;-76
2022/11/04 02:49:32;;;;;;;34.70;25.67;;;;;;;;;;5031131;28;20502;-76
2022/11/04 02:52:02;;;;;;;34.85;25.85;;;;;;;;;;5031486;28;20060;-75
2022/11/04 02:54:38;;;;;;;34.83;25.05;;;;;;;;;;5031427;28;20041;-76
2022/11/04 02:57:06;;;;;;;40.78;25.73;;;;;;;;;;5019186;28;20028;-74
2022/11/04 02:59:40;;;;;;;34.25;26.70;;;;;;;;;;5031110;28;20037;-77
2022/11/04 03:02:08;;;;;;;33.08;25.52;;;;;;;;;;5030131;28;20025;-76
2022/11/04 03:04:38;;;;;;;33.20;24.40;;;;;;;;;;5031530;28;20036;-75
2022/11/04 03:07:07;;;;;;;35.30;23.95;;;;;;;;;;5029745;28;20018;-73
2022/11/04 03:09:34;;;;;;;33.90;24.10;;;;;;;;;;5029281;28;20033;-74
2022/11/04 03:12:04;;;;;;;33.20;24.80;;;;;;;;;;5031043;28;20025;-75
2022/11/04 03:14:34;;;;;;;31.77;24.67;;;;;;;;;;5030042;28;20112;-76
2022/11/04 03:17:02;;;;;;;30.45;25.38;;;;;;;;;;5029530;28;20024;-75
2022/11/04 03:19:32;;;;;;;36.03;27.20;;;;;;;;;;5030935;28;20062;-74
2022/11/04 03:22:04;;;;;;;38.33;28.38;;;;;;;;;;5029788;28;20060;-76
2022/11/04 03:24:30;;;;;;;35.50;26.77;;;;;;;;;;5029532;28;20407;-76
2022/11/04 03:27:02;;;;;;;35.10;27.55;;;;;;;;;;5029671;28;20017;-75
2022/11/04 03:29:28;;;;;;;;;;;;;;;;;;5029948;28;20021;-76
2022/11/04 03:32:02;;;;;;;34.30;24.98;;;;;;;;;;5030869;28;19909;-76
2022/11/04 03:34:29;;;;;;;34.40;26.48;;;;;;;;;;5030914;28;20396;-76
2022/11/04 03:36:56;;;;;;;32.42;22.58;;;;;;;;;;5030893;28;20033;-76
2022/11/04 03:39:22;;;;;;;31.17;25.55;;;;;;;;;;5031144;28;20384;-75
2022/11/04 03:41:50;;;;;;;36.50;25.73;;;;;;;;;;5031666;28;20399;-76
2022/11/04 03:44:16;;;;;;;33.97;25.50;;;;;;;;;;5032604;28;20069;-76
2022/11/04 03:46:42;;;;;;;35.83;26.55;;;;;;;;;;5033383;28;20022;-76
2022/11/04 03:49:08;;;;;;;32.40;26.17;;;;;;;;;;5035063;28;20067;-76
2022/11/04 03:51:34;;;;;;;34.28;26.08;;;;;;;;;;5034617;28;20442;-75
2022/11/04 03:54:01;;;;;;;36.95;26.63;;;;;;;;;;5035578;28;20025;-75
2022/11/04 03:56:38;;;;;;;31.85;25.33;;;;;;;;;;5025172;28;20553;-75
2022/11/04 03:59:11;;;;;;;30.13;23.65;;;;;;;;;;5031379;28;20059;-75
2022/11/04 04:01:53;;;;;;;34.05;25.45;;;;;;;;;;5030284;28;20083;-75
2022/11/04 04:04:28;;;;;;;28.30;23.02;;;;;;;;;;5030572;28;20140;-75
2022/11/04 04:06:56;;;;;;;34.35;25.08;;;;;;;;;;5027219;28;20013;-76
2022/11/04 04:09:52;;;;;;;31.23;23.77;;;;;;;;;;5029987;28;20104;-76
2022/11/04 04:12:35;;;;;;;35.13;26.00;;;;;;;;;;5017685;28;20105;-75
2022/11/04 04:15:12;;;;;;;34.92;26.60;;;;;;;;;;5030792;28;20017;-76
2022/11/04 04:17:46;;;;;;;34.72;26.58;;;;;;;;;;5029944;28;20152;-74
2022/11/04 04:20:15;;;;;;;32.97;25.35;;;;;;;;;;5032239;28;20487;-76
2022/11/04 04:22:44;;;;;;;38.45;26.65;;;;;;;;;;5034387;28;20029;-76
2022/11/04 04:27:57;;;;;;;40.65;28.58;;;;;;;;;;5033686;28;20044;-76
2022/11/04 04:30:23;;;;;;;35.95;26.08;;;;;;;;;;5034086;28;20028;-76
2022/11/04 04:32:57;;;;;;;39.45;27.67;;;;;;;;;;5034135;28;20072;-76
2022/11/04 04:35:41;;;;;;;35.15;27.67;;;;;;;;;;5034285;28;20406;-76
2022/11/04 04:47:03;;;;;;;37.45;26.92;;;;;;;;;;5033910;28;20443;-77
2022/11/04 04:49:33;;;;;;;34.45;27.58;;;;;;;;;;5033790;28;20056;-76
2022/11/04 04:52:00;;;;;;;35.33;26.42;;;;;;;;;;5033768;28;20029;-76
2022/11/04 04:54:26;;;;;;;37.80;29.48;;;;;;;;;;5033721;28;20040;-75
2022/11/04 04:56:52;;;;;;;37.65;29.25;;;;;;;;;;5023260;28;20022;-76
2022/11/04 04:59:18;;;;;;;45.30;31.67;;;;;;;;;;5014717;28;20033;-76
2022/11/04 05:01:44;;;;;;;45.90;32.97;;;;;;;;;;5014971;28;20037;-77
2022/11/04 05:04:10;;;;;;;46.38;34.00;;;;;;;;;;5018675;28;20116;-75
2022/11/04 05:06:36;;;;;;;48.00;35.28;;;;;;;;;;5032494;28;20021;-75
2022/11/04 05:09:02;;;;;;;47.92;35.40;;;;;;;;;;5025137;28;20407;-76
2022/11/04 05:11:28;;;;;;;50.67;35.47;;;;;;;;;;5033631;28;20029;-77
2022/11/04 05:13:54;;;;;;;51.38;37.75;;;;;;;;;;5032587;28;20480;-76
2022/11/04 05:16:20;;;;;;;51.67;38.75;;;;;;;;;;5029753;28;20033;-76
2022/11/04 05:18:46;;;;;;;53.05;38.28;;;;;;;;;;5032445;28;20036;-77
2022/11/04 05:21:13;;;;;;;56.67;39.63;;;;;;;;;;5033783;28;20025;-76
2022/11/04 05:23:39;;;;;;;60.25;40.67;;;;;;;;;;5033693;28;20026;-76
2022/11/04 05:26:05;;;;;;;53.15;39.70;;;;;;;;;;5033834;28;20018;-75
2022/11/04 05:28:31;;;;;;;59.22;41.65;;;;;;;;;;5032423;28;20041;-76
2022/11/04 05:30:57;;;;;;;56.38;40.55;;;;;;;;;;5032600;28;20032;-75
2022/11/04 05:33:23;;;;;;;57.58;41.53;;;;;;;;;;5027501;28;20026;-75
2022/11/04 05:35:49;;;;;;;60.33;42.78;;;;;;;;;;5027088;28;20108;-75
2022/11/04 05:38:15;;;;;;;58.08;41.88;;;;;;;;;;5031734;28;20476;-75
2022/11/04 05:40:41;;;;;;;56.03;40.70;;;;;;;;;;5033065;28;20026;-76
2022/11/04 05:43:07;;;;;;;59.90;40.83;;;;;;;;;;5031671;28;20027;-77
2022/11/04 05:45:33;;;;;;;55.20;39.60;;;;;;;;;;5032930;28;20021;-76
2022/11/04 05:48:04;;;;;;;61.70;42.88;;;;;;;;;;5031971;28;20053;-78
2022/11/04 05:50:31;;;;;;;58.92;41.40;;;;;;;;;;5033247;28;20037;-76
2022/11/04 05:52:57;;;;;;;60.75;40.78;;;;;;;;;;5031081;28;20075;-78
2022/11/04 05:55:23;;;;;;;73.95;45.45;;;;;;;;;;5029146;28;20552;-77
2022/11/04 05:57:49;;;;;;;72.10;46.17;;;;;;;;;;5025908;28;20026;-76
2022/11/04 06:00:16;;;;;;;67.78;43.75;;;;;;;;;;5032499;28;20025;-77
2022/11/04 06:02:42;;;;;;;65.85;46.22;;;;;;;;;;5031570;28;20398;-76
2022/11/04 06:05:08;;;;;;;71.72;44.47;;;;;;;;;;5031215;28;20025;-76
2022/11/04 06:07:34;;;;;;;69.07;43.95;;;;;;;;;;5026523;28;20106;-74
2022/11/04 06:10:00;;;;;;;65.18;42.25;;;;;;;;;;5027805;28;20084;-74
2022/11/04 06:12:26;;;;;;;64.75;42.63;;;;;;;;;;5032710;28;20022;-76
2022/11/04 06:14:52;;;;;;;55.88;38.45;;;;;;;;;;5032008;28;20025;-76
2022/11/04 06:17:19;;;;;;;60.78;40.70;;;;;;;;;;5031693;28;20320;-77
2022/11/04 06:19:45;;;;;;;54.80;36.83;;;;;;;;;;5032158;28;20495;-75
2022/11/04 06:22:12;;;;;;;57.60;37.28;;;;;;;;;;5032287;28;20072;-76
2022/11/04 06:24:38;;;;;;;49.88;34.28;;;;;;;;;;5032988;28;20032;-77
2022/11/04 06:27:04;;;;;;;51.03;33.03;;;;;;;;;;5036153;28;20442;-75
2022/11/04 06:29:31;;;;;;;47.75;32.40;;;;;;;;;;5034157;28;20021;-76
2022/11/04 06:31:57;;;;;;;39.05;27.38;;;;;;;;;;5033868;28;20022;-76
2022/11/04 06:34:23;;;;;;;50.95;32.35;;;;;;;;;;5029402;28;20032;-75
2022/11/04 06:36:49;;;;;;;42.55;28.80;;;;;;;;;;5031474;28;20022;-76
2022/11/04 06:39:15;;;;;;;35.95;25.63;;;;;;;;;;5031401;28;20021;-76
2022/11/04 06:41:41;;;;;;;40.35;27.80;;;;;;;;;;5031853;28;20383;-74
2022/11/04 06:44:07;;;;;;;37.38;26.13;;;;;;;;;;5020249;28;20029;-74
2022/11/04 06:46:35;;;;;;;33.88;23.33;;;;;;;;;;5031415;28;20048;-76
2022/11/04 06:49:01;;;;;;;37.40;23.27;;;;;;;;;;5034223;28;20041;-76
2022/11/04 06:51:27;;;;;;;37.70;23.45;;;;;;;;;;5037651;28;20018;-75
2022/11/04 06:53:53;;;;;;;32.17;20.55;;;;;;;;;;5035985;28;20115;-74
2022/11/04 06:56:19;;;;;;;33.83;20.98;;;;;;;;;;5033633;28;20025;-75
2022/11/04 06:58:49;;;;;;;29.88;18.48;;;;;;;;;;5038859;28;20295;-74
2022/11/04 07:01:16;;;;;;;28.67;17.02;;;;;;;;;;5031674;28;20056;-74
2022/11/04 07:03:42;;;;;;;28.85;17.42;;;;;;;;;;5031307;28;20479;-80
2022/11/04 07:06:08;;;;;;;25.52;16.92;;;;;;;;;;5030450;28;20498;-77
2022/11/04 07:08:39;;;;;;;24.20;15.15;;;;;;;;;;5019726;28;20029;-76
2022/11/04 07:11:05;;;;;;;24.65;14.80;;;;;;;;;;5012795;28;20479;-75
2022/11/04 07:13:31;;;;;;;22.08;15.60;;;;;;;;;;5020520;28;20052;-76
2022/11/04 07:16:03;;;;;;;21.85;13.02;;;;;;;;;;5013191;28;20018;-75
2022/11/04 07:18:29;;;;;;;18.88;12.80;;;;;;;;;;5029480;28;20026;-75
2022/11/04 07:20:56;;;;;;;17.02;11.43;;;;;;;;;;5030896;28;20067;-75
2022/11/04 07:23:22;;;;;;;17.48;11.10;;;;;;;;;;5030815;28;20056;-76
2022/11/04 07:25:48;;;;;;;14.70;10.15;;;;;;;;;;5029655;28;20065;-76
2022/11/04 07:28:14;;;;;;;12.10;8.73;;;;;;;;;;5028504;28;20026;-78
2022/11/04 07:30:40;;;;;;;13.00;9.25;;;;;;;;;;5031543;28;20022;-76
2022/11/04 07:33:06;;;;;;;10.13;7.97;;;;;;;;;;5030499;28;20021;-75
2022/11/04 07:35:32;;;;;;;11.45;8.52;;;;;;;;;;5030828;28;20022;-75
2022/11/04 07:37:58;;;;;;;13.02;8.75;;;;;;;;;;5029983;28;20030;-74
2022/11/04 07:40:24;;;;;;;13.60;8.48;;;;;;;;;;5030671;28;20083;-74
2022/11/04 07:42:50;;;;;;;10.25;7.28;;;;;;;;;;5030039;28;20103;-74
2022/11/04 07:45:19;;;;;;;11.90;7.72;;;;;;;;;;5028678;28;20475;-74
2022/11/04 07:47:45;;;;;;;13.63;8.95;;;;;;;;;;5028364;28;20426;-75
2022/11/04 07:50:14;;;;;;;12.10;7.72;;;;;;;;;;5029029;28;20160;-75
2022/11/04 07:52:40;;;;;;;11.00;8.38;;;;;;;;;;5028395;28;20026;-75
2022/11/04 07:55:06;;;;;;;10.82;7.85;;;;;;;;;;5028866;28;20032;-76
2022/11/04 07:57:32;;;;;;;13.18;7.75;;;;;;;;;;5032563;28;20033;-75
2022/11/04 07:59:58;;;;;;;9.02;7.18;;;;;;;;;;5035192;28;20040;-75
2022/11/04 08:02:24;;;;;;;11.82;8.05;;;;;;;;;;5035021;28;20466;-75
2022/11/04 08:04:50;;;;;;;10.90;7.15;;;;;;;;;;5034893;28;20026;-74
2022/11/04 08:07:16;;;;;;;12.55;7.70;;;;;;;;;;5033772;28;20045;-75
2022/11/04 08:09:50;;;;;;;14.20;7.97;;;;;;;;;;5035331;28;20033;-72
2022/11/04 08:12:16;;;;;;;10.85;8.10;;;;;;;;;;5035135;28;20430;-76
2022/11/04 08:14:45;;;;;;;11.38;8.20;;;;;;;;;;5034872;28;20022;-76
2022/11/04 08:17:14;;;;;;;14.88;7.80;;;;;;;;;;5034162;28;20091;-73
2022/11/04 08:19:43;;;;;;;9.70;7.38;;;;;;;;;;5034556;28;20029;-74
2022/11/04 08:22:12;;;;;;;16.92;10.10;;;;;;;;;;5034572;28;20037;-75
2022/11/04 08:24:39;;;;;;;22.48;14.07;;;;;;;;;;5034717;28;20022;-75
2022/11/04 08:27:08;;;;;;;29.98;21.17;;;;;;;;;;5032868;28;20025;-74
2022/11/04 08:29:34;;;;;;;37.65;24.88;;;;;;;;;;5034808;28;20394;-75
2022/11/04 08:32:00;;;;;;;41.20;26.67;;;;;;;;;;5034844;28;20097;-76
2022/11/04 08:34:26;;;;;;;36.60;25.00;;;;;;;;;;5033839;28;20132;-75
2022/11/04 08:36:56;;;;;;;35.70;24.42;;;;;;;;;;5025013;28;20033;-76
2022/11/04 08:39:22;;;;;;;34.20;23.08;;;;;;;;;;5013771;28;20167;-76
2022/11/04 08:42:19;;;;;;;31.85;22.63;;;;;;;;;;5032201;28;20200;-79
2022/11/04 08:44:45;;;;;;;36.75;23.42;;;;;;;;;;5009322;28;20034;-78
2022/11/04 08:47:14;;;;;;;31.95;19.48;;;;;;;;;;5014546;28;20025;-76
2022/11/04 08:49:42;;;;;;;31.33;21.83;;;;;;;;;;5026887;28;20025;-79
2022/11/04 08:52:09;;;;;;;25.90;18.98;;;;;;;;;;5028836;28;20025;-78
2022/11/04 08:54:40;;;;;;;25.65;16.77;;;;;;;;;;5016572;28;20034;-80
2022/11/04 08:57:08;;;;;;;20.17;14.95;;;;;;;;;;5011786;28;20496;-78
2022/11/04 08:59:34;;;;;;;18.75;12.57;;;;;;;;;;5027304;28;20041;-79
2022/11/04 09:02:00;;;;;;;15.27;10.95;;;;;;;;;;5024132;28;20065;-80
2022/11/04 09:04:26;;;;;;;18.83;10.50;;;;;;;;;;5032431;28;20505;-80
2022/11/04 09:07:01;;;;;;;17.05;10.07;;;;;;;;;;5033557;28;20104;-80
2022/11/04 09:09:47;;;;;;;12.82;9.13;;;;;;;;;;5037509;28;20025;-79
2022/11/04 09:12:15;;;;;;;10.88;7.20;;;;;;;;;;5025953;28;20536;-79
2022/11/04 09:14:52;;;;;;;10.82;7.55;;;;;;;;;;5032457;28;20025;-79
2022/11/04 09:17:23;;;;;;;10.40;7.70;;;;;;;;;;5032800;28;20033;-76
2022/11/04 09:19:56;;;;;;;9.93;7.15;;;;;;;;;;5025455;28;20487;-78
2022/11/04 09:22:38;;;;;;;10.68;7.60;;;;;;;;;;5032131;28;20140;-78
2022/11/04 09:25:13;;;;;;;12.90;7.65;;;;;;;;;;5032507;28;20171;-80
2022/11/04 09:27:39;;;;;;;10.60;8.10;;;;;;;;;;5034764;28;20025;-77
2022/11/04 09:30:05;;;;;;;12.57;8.95;;;;;;;;;;5032986;28;20373;-76
2022/11/04 09:32:31;;;;;;;14.63;9.85;;;;;;;;;;5020033;28;20049;-76
2022/11/04 09:34:57;;;;;;;16.20;9.60;;;;;;;;;;5016766;28;20017;-76
2022/11/04 09:37:26;;;;;;;12.60;9.48;;;;;;;;;;5016603;28;20042;-82
2022/11/04 09:39:54;;;;;;;13.70;9.65;;;;;;;;;;5024288;28;20554;-77
2022/11/04 09:42:59;;;;;;;13.57;9.38;;;;;;;;;;5024432;28;20115;-78
2022/11/04 09:45:26;;;;;;;18.85;10.02;;;;;;;;;;4947628;28;20094;-78
2022/11/04 09:47:55;;;;;;;13.27;8.98;;;;;;;;;;4954699;28;20034;-78
2022/11/04 09:50:31;;;;;;;15.23;10.55;;;;;;;;;;4975609;28;20129;-79
2022/11/04 09:53:11;;;;;;;14.23;9.93;;;;;;;;;;5017546;28;20021;-77
2022/11/04 09:55:55;;;;;;;15.13;10.43;;;;;;;;;;5027563;28;20109;-78
2022/11/04 09:58:21;;;;;;;15.93;10.20;;;;;;;;;;5015431;28;20444;-75
2022/11/04 10:01:07;;;;;;;18.63;10.55;;;;;;;;;;5017895;28;20021;-77
2022/11/04 10:03:36;;;;;;;19.27;10.38;;;;;;;;;;4988279;28;20280;-78
2022/11/04 10:06:21;;;;;;;20.33;12.00;;;;;;;;;;5023096;28;20057;-78
2022/11/04 10:08:59;;;;;;;20.15;12.43;;;;;;;;;;5009811;28;20026;-78
2022/11/04 10:11:26;;;;;;;16.23;11.48;;;;;;;;;;5009154;28;20037;-80
2022/11/04 10:13:58;;;;;;;19.88;12.40;;;;;;;;;;5010224;28;20075;-80
2022/11/04 10:16:30;;;;;;;21.70;12.70;;;;;;;;;;5014911;28;20034;-80
2022/11/04 10:19:21;;;;;;;19.48;11.63;;;;;;;;;;5020747;28;20021;-80
2022/11/04 10:22:29;;;;;;;21.30;11.80;;;;;;;;;;4988568;28;20037;-80
2022/11/04 10:25:16;;;;;;;24.73;12.43;;;;;;;;;;4952849;28;20429;-79
2022/11/04 10:27:46;;;;;;;19.00;12.02;;;;;;;;;;4943574;28;20042;-79
2022/11/04 10:30:15;;;;;;;23.50;12.13;;;;;;;;;;4987300;28;20122;-78
2022/11/04 10:32:59;;;;;;;19.00;10.57;;;;;;;;;;5036111;28;20451;-77
2022/11/04 10:35:44;;;;;;;20.00;11.18;;;;;;;;;;5030722;28;20026;-79
2022/11/04 10:38:21;;;;;;;16.67;9.75;;;;;;;;;;5019767;28;20033;-79
2022/11/04 10:40:58;;;;;;;17.35;8.85;;;;;;;;;;5015559;28;20045;-78
2022/11/04 10:43:40;;;;;;;20.25;11.30;;;;;;;;;;5032697;28;20022;-79
2022/11/04 10:46:12;;;;;;;14.95;8.70;;;;;;;;;;5017654;28;20086;-80
2022/11/04 10:48:52;;;;;;;20.20;9.77;;;;;;;;;;5040250;28;20056;-78
2022/11/04 10:51:29;;;;;;;15.85;9.00;;;;;;;;;;5047775;28;20100;-79
2022/11/04 10:57:10;;;;;;;14.55;9.48;;;;;;;;;;5015718;28;20056;-79
2022/11/04 10:59:36;;;;;;;;;;;;;;;;;;5015215;28;20026;-80
2022/11/04 11:02:06;;;;;;;17.35;10.05;;;;;;;;;;5016881;28;19909;-81
2022/11/04 11:04:40;;;;;;;16.40;10.45;;;;;;;;;;5019278;28;20034;-81
2022/11/04 11:07:22;;;;;;;24.17;12.43;;;;;;;;;;5011179;28;20049;-78
2022/11/04 11:12:28;;;;;;;16.52;9.40;;;;;;;;;;5041956;28;20096;-79
2022/11/04 11:15:19;;;;;;;20.08;11.77;;;;;;;;;;5083244;22;20045;-79
2022/11/04 11:18:04;;;;;;;17.80;10.70;;;;;;;;;;5045374;28;20021;-81
2022/11/04 11:21:12;;;;;;;24.20;12.18;;;;;;;;;;5044849;28;20045;-81
2022/11/04 11:23:46;;;;;;;21.23;11.07;;;;;;;;;;4989457;28;20057;-81
2022/11/04 11:26:27;;;;;;;15.85;10.88;;;;;;;;;;5001730;28;20026;-84
2022/11/04 11:32:06;;;;;;;22.65;13.05;;;;;;;;;;5071123;22;20060;-81
2022/11/04 11:34:36;;;;;;;19.73;10.13;;;;;;;;;;5074193;28;20040;-82
2022/11/04 11:37:18;;;;;;;23.38;11.93;;;;;;;;;;5072374;28;20040;-81
2022/11/04 11:39:56;;;;;;;17.67;10.48;;;;;;;;;;5072077;28;20469;-83
2022/11/04 11:45:38;;;;;;;14.13;9.48;;;;;;;;;;5043092;28;20030;-83
2022/11/04 11:48:28;;;;;;;18.38;10.05;;;;;;;;;;5042900;28;20487;-84
2022/11/04 11:50:57;;;;;;;14.00;9.82;;;;;;;;;;5040709;28;20105;-83
2022/11/04 11:53:36;;;;;;;14.85;8.63;;;;;;;;;;5037950;28;20060;-82
2022/11/04 11:56:21;;;;;;;15.75;8.77;;;;;;;;;;5047409;28;20031;-81
2022/11/04 11:59:14;;;;;;;12.90;8.82;;;;;;;;;;5036629;28;20022;-79
2022/11/04 12:02:00;;;;;;;18.92;12.48;;;;;;;;;;5055675;28;20041;-81
2022/11/04 12:04:29;;;;;;;18.48;10.48;;;;;;;;;;5047973;28;20097;-82
2022/11/04 12:07:33;;;;;;;;;;;;;;;;;;;;;
2022/11/04 12:19:11;;;;;;;22.70;13.07;;;;;;;;;;5032050;28;20121;-82
2022/11/04 12:37:25;;;;;;;20.35;12.57;;;;;;;;;;4955783;29;20716;-77
2022/11/04 12:43:11;;;;;;;;;;;;;;;;;;;;;
2022/11/04 12:46:19;;;;;;;20.27;11.95;;;;;;;;;;5015222;28;20532;-83
2022/11/04 12:49:14;;;;;;;16.27;11.27;;;;;;;;;;4952350;28;20114;-80
2022/11/04 12:58:27;;;;;;;20.85;12.73;;;;;;;;;;5029709;28;20120;-79
2022/11/04 13:06:33;;;;;;;16.40;11.13;;;;;;;;;;5128582;22;20061;-84
2022/11/04 13:09:37;;;;;;;27.15;17.48;;;;;;;;;;5044771;28;20041;-82
2022/11/04 13:15:33;;;;;;;15.82;11.70;;;;;;;;;;5015729;28;20075;-76
2022/11/04 13:18:19;;;;;;;17.88;12.27;;;;;;;;;;5017424;28;20479;-78
2022/11/04 13:21:07;;;;;;;18.70;12.13;;;;;;;;;;5032989;28;20468;-78
2022/11/04 13:27:14;;;;;;;18.77;12.43;;;;;;;;;;5005884;28;20026;-78
2022/11/04 13:32:57;;;;;;;18.17;13.07;;;;;;;;;;4943884;29;20094;-82
2022/11/04 13:39:11;;;;;;;;;;;;;;;;;;;;;
2022/11/04 13:45:08;;;;;;;20.15;13.55;;;;;;;;;;5090719;28;20040;-84
2022/11/04 13:48:04;;;;;;;16.92;12.73;;;;;;;;;;5070607;28;20093;-83
2022/11/04 13:50:55;;;;;;;19.30;12.98;;;;;;;;;;5076105;28;20034;-82
2022/11/04 13:53:23;;;;;;;19.73;14.85;;;;;;;;;;5046277;28;20057;-81
2022/11/04 13:55:53;;;;;;;18.85;13.75;;;;;;;;;;5051556;28;20029;-79
2022/11/04 13:58:35;;;;;;;18.23;12.27;;;;;;;;;;5060493;28;20040;-83
2022/11/04 14:01:54;;;;;;;;;;;;;;;;;;;;;
2022/11/04 14:04:56;;;;;;;27.98;14.30;;;;;;;;;;4998374;28;20186;-82
2022/11/04 14:07:42;;;;;;;19.08;13.15;;;;;;;;;;4927901;29;20035;-83
2022/11/04 14:10:26;;;;;;;24.95;16.77;;;;;;;;;;4942987;29;20027;-82
2022/11/04 14:13:32;;;;;;;18.80;12.98;;;;;;;;;;4941212;29;20027;-82
2022/11/04 14:16:14;;;;;;;15.85;12.85;;;;;;;;;;4942714;29;20028;-81
2022/11/04 14:18:57;;;;;;;21.42;12.88;;;;;;;;;;4923616;29;20028;-83
2022/11/04 14:21:28;;;;;;;25.23;14.48;;;;;;;;;;4998972;28;20161;-83
2022/11/04 14:24:15;;;;;;;25.80;14.85;;;;;;;;;;5061029;28;20043;-84
2022/11/04 14:26:51;;;;;;;19.85;14.07;;;;;;;;;;5072087;28;20039;-83
2022/11/04 14:29:41;;;;;;;;;;;;;;;;;;;;;
2022/11/04 14:32:46;;;;;;;24.23;15.65;;;;;;;;;;5085465;28;20056;-84
2022/11/04 14:35:35;;;;;;;27.85;15.75;;;;;;;;;;5032801;28;20017;-84
2022/11/04 14:38:23;;;;;;;21.15;14.35;;;;;;;;;;5050770;28;20033;-83
2022/11/04 14:44:14;;;;;;;20.92;15.07;;;;;;;;;;5067345;28;20025;-82
2022/11/04 14:47:03;;;;;;;27.75;17.55;;;;;;;;;;5056209;28;20073;-80
2022/11/04 14:55:46;;;;;;;20.00;14.60;;;;;;;;;;5079964;22;20059;-82
2022/11/04 15:04:25;;;;;;;21.48;15.02;;;;;;;;;;5079955;28;20824;-82
2022/11/04 15:07:05;;;;;;;21.87;14.30;;;;;;;;;;5056424;28;20474;-81
2022/11/04 15:10:04;;;;;;;;;;;;;;;;;;;;;
2022/11/04 15:13:06;;;;;;;;;;;;;;;;;;;;;
2022/11/04 15:16:05;;;;;;;32.95;16.60;;;;;;;;;;5047145;28;20097;-82
2022/11/04 15:18:59;;;;;;;29.00;16.88;;;;;;;;;;5020525;28;20056;-82
2022/11/04 15:25:20;;;;;;;29.08;17.45;;;;;;;;;;5039825;28;20026;-83
2022/11/04 15:34:16;;;;;;;26.85;16.88;;;;;;;;;;4961393;29;20035;-83
2022/11/04 15:37:04;;;;;;;;;;;;;;;;;;;;;
2022/11/04 15:42:43;;;;;;;29.95;17.73;;;;;;;;;;5030048;28;20037;-83
2022/11/04 15:45:33;;;;;;;32.92;17.40;;;;;;;;;;5039766;28;20037;-83
2022/11/04 15:48:18;;;;;;;27.60;17.17;;;;;;;;;;5037593;28;20029;-82
2022/11/04 15:51:39;;;;;;;30.92;16.42;;;;;;;;;;5082249;22;20040;-82
2022/11/04 15:54:37;;;;;;;30.15;17.60;;;;;;;;;;5025931;28;20048;-83
2022/11/04 15:57:27;;;;;;;33.30;17.13;;;;;;;;;;5037705;28;20025;-82
2022/11/04 16:00:15;;;;;;;32.40;18.05;;;;;;;;;;5044655;28;20048;-83
2022/11/04 16:06:23;;;;;;;25.38;16.88;;;;;;;;;;5069192;28;20060;-84
2022/11/04 16:12:14;;;;;;;33.65;17.85;;;;;;;;;;5358282;23;20044;-85
2022/11/04 16:23:43;;;;;;;;;;;;;;;;;;5088464;28;20031;-84
2022/11/04 17:20:48;;;;;;;31.65;17.77;;;;;;;;;;5031303;22;20055;-79
2022/11/04 17:23:23;;;;;;;31.38;17.17;;;;;;;;;;5067600;28;20092;-80
2022/11/04 17:26:04;;;;;;;30.70;16.98;;;;;;;;;;5058706;28;20179;-80
2022/11/04 17:29:15;;;;;;;34.80;17.30;;;;;;;;;;5090983;28;20470;-81
2022/11/04 17:34:57;;;;;;;38.80;19.38;;;;;;;;;;5018567;28;20056;-78
2022/11/04 17:44:01;;;;;;;39.30;20.33;;;;;;;;;;5059313;28;20039;-82
2022/11/04 17:46:47;;;;;;;29.48;18.02;;;;;;;;;;5066307;28;20047;-83
2022/11/04 17:49:30;;;;;;;31.95;18.27;;;;;;;;;;5044074;28;20021;-83
2022/11/04 17:52:17;;;;;;;41.35;22.92;;;;;;;;;;5043001;28;20071;-85
2022/11/04 17:55:19;;;;;;;36.75;19.23;;;;;;;;;;5026613;28;20064;-84
2022/11/04 18:00:45;;;;;;;31.90;18.75;;;;;;;;;;4903072;29;19915;-85
2022/11/04 18:03:37;;;;;;;36.88;19.48;;;;;;;;;;4900218;29;20487;-85
2022/11/04 18:06:38;;;;;;;34.17;19.85;;;;;;;;;;4948592;28;20046;-82
2022/11/04 18:09:35;;;;;;;45.90;21.55;;;;;;;;;;4970424;28;20030;-84
2022/11/04 18:15:17;;;;;;;37.20;19.33;;;;;;;;;;5027839;28;20032;-83
2022/11/04 18:18:24;;;;;;;49.10;21.10;;;;;;;;;;5041605;28;20064;-83
2022/11/04 18:20:51;;;;;;;46.15;22.88;;;;;;;;;;4949137;28;20150;-82
2022/11/04 18:23:44;;;;;;;;;;;;;;;;;;;;;
2022/11/04 18:35:10;;;;;;;40.55;20.88;;;;;;;;;;4698795;26;20045;-83
2022/11/04 18:51:09;;;;;;;;;;;;;;;;;;;;;
2022/11/04 18:53:54;;;;;;;47.42;23.75;;;;;;;;;;4973012;28;20106;-83
2022/11/04 19:10:26;;;;;;;46.67;23.38;;;;;;;;;;5075178;28;20062;-81
2022/11/04 19:13:55;;;;;;;;;;;;;;;;;;;;;
2022/11/04 19:16:26;;;;;;;32.63;19.77;;;;;;;;;;5039344;28;20082;-81
2022/11/04 19:19:18;;;;;;;40.10;22.67;;;;;;;;;;5063421;28;20024;-82